sensor_id;sensor_type;location;lat;lon;timestamp;pressure;altitude;pressure_sealevel;temperature;humidity
14882;BME280;7533;51.278;12.588;2022-10-16T00:03:04;99797.66;;;24.50;68.64
14882;BME280;7533;51.278;12.588;2022-10-16T00:08:07;99798.50;;;24.51;68.82
14882;BME280;7533;51.278;12.588;2022-10-16T00:13:10;99795.81;;;24.51;69.01
14882;BME280;7533;51.278;12.588;2022-10-16T00:18:14;99803.81;;;24.52;68.91
14882;BME280;7533;51.278;12.588;2022-10-16T00:23:17;99806.50;;;24.52;69.13
14882;BME280;7533;51.278;12.588;2022-10-16T00:28:20;99810.06;;;24.53;68.97
14882;BME280;7533;51.278;12.588;2022-10-16T00:33:24;99816.44;;;24.52;69.18
14882;BME280;7533;51.278;12.588;2022-10-16T00:38:27;99825.31;;;24.54;69.16
14882;BME280;7533;51.278;12.588;2022-10-16T00:43:36;99825.16;;;24.56;69.06
14882;BME280;7533;51.278;12.588;2022-10-16T00:48:42;99830.41;;;24.57;69.04
14882;BME280;7533;51.278;12.588;2022-10-16T00:53:48;99836.81;;;24.56;68.96
14882;BME280;7533;51.278;12.588;2022-10-16T00:58:50;99834.88;;;24.58;69.16
14882;BME280;7533;51.278;12.588;2022-10-16T01:03:54;99824.03;;;24.58;69.10
14882;BME280;7533;51.278;12.588;2022-10-16T01:09:06;99830.41;;;24.57;68.82
14882;BME280;7533;51.278;12.588;2022-10-16T01:14:21;99823.03;;;24.59;69.23
14882;BME280;7533;51.278;12.588;2022-10-16T01:19:39;99826.84;;;24.57;69.33
14882;BME280;7533;51.278;12.588;2022-10-16T01:24:49;99829.72;;;24.55;69.35
14882;BME280;7533;51.278;12.588;2022-10-16T01:29:56;99834.88;;;24.58;69.28
14882;BME280;7533;51.278;12.588;2022-10-16T01:35:05;99838.53;;;24.57;69.40
14882;BME280;7533;51.278;12.588;2022-10-16T01:40:14;99833.00;;;24.59;69.13
14882;BME280;7533;51.278;12.588;2022-10-16T01:45:21;99827.72;;;24.57;69.21
14882;BME280;7533;51.278;12.588;2022-10-16T01:50:24;99834.88;;;24.58;69.27
14882;BME280;7533;51.278;12.588;2022-10-16T01:55:29;99834.13;;;24.56;69.07
14882;BME280;7533;51.278;12.588;2022-10-16T02:00:37;99860.06;;;24.59;69.16
14882;BME280;7533;51.278;12.588;2022-10-16T02:05:45;99846.53;;;24.59;69.49
14882;BME280;7533;51.278;12.588;2022-10-16T02:10:48;99857.38;;;24.59;69.31
14882;BME280;7533;51.278;12.588;2022-10-16T02:15:52;99856.50;;;24.58;69.44
14882;BME280;7533;51.278;12.588;2022-10-16T02:20:59;99843.84;;;24.59;69.21
14882;BME280;7533;51.278;12.588;2022-10-16T02:26:04;99829.44;;;24.58;69.27
14882;BME280;7533;51.278;12.588;2022-10-16T02:31:13;99843.09;;;24.57;69.46
14882;BME280;7533;51.278;12.588;2022-10-16T02:36:18;99861.03;;;24.58;69.44
14882;BME280;7533;51.278;12.588;2022-10-16T02:41:21;99872.84;;;24.57;69.62
14882;BME280;7533;51.278;12.588;2022-10-16T02:46:26;99878.16;;;24.58;69.38
14882;BME280;7533;51.278;12.588;2022-10-16T02:51:28;99878.28;;;24.57;69.58
14882;BME280;7533;51.278;12.588;2022-10-16T02:56:31;99878.16;;;24.58;69.61
14882;BME280;7533;51.278;12.588;2022-10-16T03:01:35;99856.50;;;24.58;69.60
14882;BME280;7533;51.278;12.588;2022-10-16T03:06:38;99867.19;;;24.60;69.26
14882;BME280;7533;51.278;12.588;2022-10-16T03:11:41;99863.63;;;24.59;69.69
14882;BME280;7533;51.278;12.588;2022-10-16T03:16:45;99870.03;;;24.58;69.87
14882;BME280;7533;51.278;12.588;2022-10-16T03:21:48;99873.59;;;24.59;69.35
14882;BME280;7533;51.278;12.588;2022-10-16T03:26:51;99879.00;;;24.59;69.24
14882;BME280;7533;51.278;12.588;2022-10-16T03:31:55;99885.13;;;24.61;69.52
14882;BME280;7533;51.278;12.588;2022-10-16T03:36:58;99892.25;;;24.62;69.43
14882;BME280;7533;51.278;12.588;2022-10-16T03:42:00;99898.50;;;24.62;69.72
14882;BME280;7533;51.278;12.588;2022-10-16T03:47:05;99902.22;;;24.61;69.85
14882;BME280;7533;51.278;12.588;2022-10-16T03:52:08;99896.81;;;24.61;69.63
14882;BME280;7533;51.278;12.588;2022-10-16T03:57:10;99897.66;;;24.62;69.65
14882;BME280;7533;51.278;12.588;2022-10-16T04:02:14;99888.97;;;24.58;69.52
14882;BME280;7533;51.278;12.588;2022-10-16T04:07:17;99885.28;;;24.59;69.81
14882;BME280;7533;51.278;12.588;2022-10-16T04:12:20;99890.69;;;24.59;69.95
14882;BME280;7533;51.278;12.588;2022-10-16T04:17:24;99892.41;;;24.60;69.77
14882;BME280;7533;51.278;12.588;2022-10-16T04:22:27;99880.44;;;24.63;69.72
14882;BME280;7533;51.278;12.588;2022-10-16T04:27:30;99894.94;;;24.62;70.02
14882;BME280;7533;51.278;12.588;2022-10-16T04:32:34;99897.81;;;24.60;69.94
14882;BME280;7533;51.278;12.588;2022-10-16T04:37:36;99921.88;;;24.63;69.97
14882;BME280;7533;51.278;12.588;2022-10-16T04:42:39;99942.81;;;24.61;69.76
14882;BME280;7533;51.278;12.588;2022-10-16T04:47:43;99919.31;;;24.62;70.09
14882;BME280;7533;51.278;12.588;2022-10-16T04:52:46;99929.13;;;24.63;69.81
14882;BME280;7533;51.278;12.588;2022-10-16T04:57:48;99928.88;;;24.66;70.01
14882;BME280;7533;51.278;12.588;2022-10-16T05:02:52;99934.44;;;24.64;69.93
14882;BME280;7533;51.278;12.588;2022-10-16T05:07:55;99960.50;;;24.65;69.64
14882;BME280;7533;51.278;12.588;2022-10-16T05:12:58;99954.34;;;24.63;69.77
14882;BME280;7533;51.278;12.588;2022-10-16T05:18:02;99960.66;;;24.64;69.78
14882;BME280;7533;51.278;12.588;2022-10-16T05:23:05;99968.63;;;24.65;70.22
14882;BME280;7533;51.278;12.588;2022-10-16T05:28:08;99957.06;;;24.63;69.72
14882;BME280;7533;51.278;12.588;2022-10-16T05:33:12;99955.09;;;24.65;69.83
14882;BME280;7533;51.278;12.588;2022-10-16T05:38:14;99973.19;;;24.65;69.93
14882;BME280;7533;51.278;12.588;2022-10-16T05:43:17;99969.63;;;24.64;69.86
14882;BME280;7533;51.278;12.588;2022-10-16T05:48:21;99982.41;;;24.62;69.88
14882;BME280;7533;51.278;12.588;2022-10-16T05:53:24;99989.41;;;24.65;69.85
14882;BME280;7533;51.278;12.588;2022-10-16T05:58:29;99985.00;;;24.64;70.14
14882;BME280;7533;51.278;12.588;2022-10-16T06:03:33;99992.13;;;24.65;69.90
14882;BME280;7533;51.278;12.588;2022-10-16T06:08:37;100001.22;;;24.64;69.78
14882;BME280;7533;51.278;12.588;2022-10-16T06:13:40;100002.09;;;24.64;69.93
14882;BME280;7533;51.278;12.588;2022-10-16T06:18:45;100006.50;;;24.65;70.26
14882;BME280;7533;51.278;12.588;2022-10-16T06:23:48;100007.50;;;24.64;70.26
14882;BME280;7533;51.278;12.588;2022-10-16T06:28:51;100007.34;;;24.66;70.38
14882;BME280;7533;51.278;12.588;2022-10-16T06:33:55;100022.59;;;24.67;69.93
14882;BME280;7533;51.278;12.588;2022-10-16T06:38:58;100035.88;;;24.70;70.03
14882;BME280;7533;51.278;12.588;2022-10-16T06:44:01;100036.72;;;24.70;69.92
14882;BME280;7533;51.278;12.588;2022-10-16T06:49:08;100044.84;;;24.70;70.22
14882;BME280;7533;51.278;12.588;2022-10-16T06:54:11;100046.41;;;24.73;69.98
14882;BME280;7533;51.278;12.588;2022-10-16T06:59:13;100054.41;;;24.74;70.23
14882;BME280;7533;51.278;12.588;2022-10-16T07:04:17;100056.69;;;24.69;70.18
14882;BME280;7533;51.278;12.588;2022-10-16T07:09:20;100058.25;;;24.72;68.85
14882;BME280;7533;51.278;12.588;2022-10-16T07:14:23;100064.78;;;24.69;68.48
14882;BME280;7533;51.278;12.588;2022-10-16T07:19:27;100059.78;;;24.65;68.38
14882;BME280;7533;51.278;12.588;2022-10-16T07:24:34;100065.19;;;24.65;67.94
14882;BME280;7533;51.278;12.588;2022-10-16T07:29:37;100050.38;;;24.69;68.48
14882;BME280;7533;51.278;12.588;2022-10-16T07:34:42;100029.88;;;24.66;68.39
14882;BME280;7533;51.278;12.588;2022-10-16T07:39:44;100044.38;;;24.65;67.78
14882;BME280;7533;51.278;12.588;2022-10-16T07:44:47;100070.59;;;24.65;68.12
14882;BME280;7533;51.278;12.588;2022-10-16T07:49:51;100077.97;;;24.63;68.21
14882;BME280;7533;51.278;12.588;2022-10-16T07:54:54;100086.84;;;24.65;68.01
14882;BME280;7533;51.278;12.588;2022-10-16T08:00:02;100085.84;;;24.66;67.94
14882;BME280;7533;51.278;12.588;2022-10-16T08:05:14;100090.41;;;24.65;68.13
14882;BME280;7533;51.278;12.588;2022-10-16T08:10:18;100090.53;;;24.64;67.92
14882;BME280;7533;51.278;12.588;2022-10-16T08:15:21;100100.63;;;24.62;68.06
14882;BME280;7533;51.278;12.588;2022-10-16T08:20:25;100109.59;;;24.62;68.29
14882;BME280;7533;51.278;12.588;2022-10-16T08:25:28;100122.00;;;24.65;68.10
14882;BME280;7533;51.278;12.588;2022-10-16T08:30:31;100119.31;;;24.65;68.23
14882;BME280;7533;51.278;12.588;2022-10-16T08:35:35;100136.66;;;24.62;68.11
14882;BME280;7533;51.278;12.588;2022-10-16T08:40:38;100125.72;;;24.64;68.16
14882;BME280;7533;51.278;12.588;2022-10-16T08:45:51;100130.13;;;24.65;68.11
14882;BME280;7533;51.278;12.588;2022-10-16T08:51:01;100126.44;;;24.66;67.96
14882;BME280;7533;51.278;12.588;2022-10-16T08:56:05;100141.44;;;24.70;68.16
14882;BME280;7533;51.278;12.588;2022-10-16T09:01:12;100146.09;;;24.68;68.03
14882;BME280;7533;51.278;12.588;2022-10-16T09:06:33;100157.78;;;24.68;68.06
14882;BME280;7533;51.278;12.588;2022-10-16T09:11:48;100177.47;;;24.70;67.90
14882;BME280;7533;51.278;12.588;2022-10-16T09:16:58;100185.84;;;24.67;68.45
14882;BME280;7533;51.278;12.588;2022-10-16T09:22:12;100194.81;;;24.68;68.12
14882;BME280;7533;51.278;12.588;2022-10-16T09:27:15;100171.06;;;24.71;67.98
14882;BME280;7533;51.278;12.588;2022-10-16T09:32:20;100175.75;;;24.69;68.13
14882;BME280;7533;51.278;12.588;2022-10-16T09:37:25;100169.34;;;24.70;68.17
14882;BME280;7533;51.278;12.588;2022-10-16T09:42:31;100177.34;;;24.72;68.04
14882;BME280;7533;51.278;12.588;2022-10-16T09:47:39;100197.13;;;24.72;68.10
14882;BME280;7533;51.278;12.588;2022-10-16T09:52:46;100198.28;;;24.70;68.12
14882;BME280;7533;51.278;12.588;2022-10-16T09:57:49;100198.28;;;24.70;68.29
14882;BME280;7533;51.278;12.588;2022-10-16T10:02:53;100197.28;;;24.71;67.91
14882;BME280;7533;51.278;12.588;2022-10-16T10:07:59;100197.75;;;24.76;68.34
14882;BME280;7533;51.278;12.588;2022-10-16T10:13:04;100212.38;;;24.73;68.28
14882;BME280;7533;51.278;12.588;2022-10-16T10:18:16;100221.78;;;24.69;68.50
14882;BME280;7533;51.278;12.588;2022-10-16T10:23:24;100219.50;;;24.74;68.40
14882;BME280;7533;51.278;12.588;2022-10-16T10:28:43;100220.97;;;24.78;68.22
14882;BME280;7533;51.278;12.588;2022-10-16T10:33:53;100227.25;;;24.79;68.56
14882;BME280;7533;51.278;12.588;2022-10-16T10:39:01;100221.72;;;24.80;68.83
14882;BME280;7533;51.278;12.588;2022-10-16T10:44:12;100223.44;;;24.82;69.09
14882;BME280;7533;51.278;12.588;2022-10-16T10:49:34;100232.75;;;24.89;68.88
14882;BME280;7533;51.278;12.588;2022-10-16T10:54:47;100233.38;;;24.92;69.48
14882;BME280;7533;51.278;12.588;2022-10-16T11:00:01;100228.19;;;24.89;69.34
14882;BME280;7533;51.278;12.588;2022-10-16T11:05:23;100229.66;;;24.93;69.35
14882;BME280;7533;51.278;12.588;2022-10-16T11:10:36;100223.25;;;24.94;68.69
14882;BME280;7533;51.278;12.588;2022-10-16T11:15:41;100231.22;;;24.96;68.80
14882;BME280;7533;51.278;12.588;2022-10-16T11:20:50;100235.88;;;24.73;68.46
14882;BME280;7533;51.278;12.588;2022-10-16T11:25:59;100236.50;;;24.76;68.58
14882;BME280;7533;51.278;12.588;2022-10-16T11:31:08;100231.31;;;24.73;68.76
14882;BME280;7533;51.278;12.588;2022-10-16T11:36:18;100234.41;;;24.69;68.97
14882;BME280;7533;51.278;12.588;2022-10-16T11:41:28;100236.69;;;24.64;68.89
14882;BME280;7533;51.278;12.588;2022-10-16T11:46:35;100239.47;;;24.62;68.96
14882;BME280;7533;51.278;12.588;2022-10-16T11:52:07;100245.88;;;24.61;69.21
14882;BME280;7533;51.278;12.588;2022-10-16T11:57:17;100243.47;;;24.58;69.35
14882;BME280;7533;51.278;12.588;2022-10-16T12:02:30;100246.41;;;24.55;69.41
14882;BME280;7533;51.278;12.588;2022-10-16T12:07:38;100247.53;;;24.52;69.64
14882;BME280;7533;51.278;12.588;2022-10-16T12:12:44;100259.31;;;24.51;69.82
14882;BME280;7533;51.278;12.588;2022-10-16T12:17:48;100261.44;;;24.48;69.82
14882;BME280;7533;51.278;12.588;2022-10-16T12:22:53;100255.03;;;24.49;69.91
14882;BME280;7533;51.278;12.588;2022-10-16T12:28:02;100268.06;;;24.44;70.17
14882;BME280;7533;51.278;12.588;2022-10-16T12:33:19;100273.88;;;24.39;70.19
14882;BME280;7533;51.278;12.588;2022-10-16T12:38:26;100260.69;;;24.35;70.26
14882;BME280;7533;51.278;12.588;2022-10-16T12:43:39;100260.69;;;24.35;70.43
14882;BME280;7533;51.278;12.588;2022-10-16T12:48:44;100251.84;;;24.33;70.37
14882;BME280;7533;51.278;12.588;2022-10-16T12:54:13;100258.09;;;24.33;70.60
14882;BME280;7533;51.278;12.588;2022-10-16T12:59:28;100260.94;;;24.32;70.60
14882;BME280;7533;51.278;12.588;2022-10-16T13:10:23;100276.91;;;24.23;70.89
14882;BME280;7533;51.278;12.588;2022-10-16T13:15:45;100284.44;;;24.20;70.99
14882;BME280;7533;51.278;12.588;2022-10-16T13:21:07;100291.94;;;24.16;71.58
14882;BME280;7533;51.278;12.588;2022-10-16T13:26:22;100289.22;;;24.27;71.11
14882;BME280;7533;51.278;12.588;2022-10-16T13:31:31;100292.22;;;24.36;71.17
14882;BME280;7533;51.278;12.588;2022-10-16T13:36:43;100287.16;;;24.42;71.17
14882;BME280;7533;51.278;12.588;2022-10-16T13:41:58;100284.53;;;24.41;70.97
14882;BME280;7533;51.278;12.588;2022-10-16T13:47:17;100280.38;;;24.48;70.73
14882;BME280;7533;51.278;12.588;2022-10-16T13:52:21;100286.28;;;24.42;70.83
14882;BME280;7533;51.278;12.588;2022-10-16T13:57:25;100295.63;;;24.38;70.83
14882;BME280;7533;51.278;12.588;2022-10-16T14:02:33;100313.91;;;24.34;70.79
14882;BME280;7533;51.278;12.588;2022-10-16T14:07:37;100324.00;;;24.32;70.98
14882;BME280;7533;51.278;12.588;2022-10-16T14:12:40;100324.38;;;24.27;71.22
14882;BME280;7533;51.278;12.588;2022-10-16T14:17:50;100333.63;;;24.25;71.33
14882;BME280;7533;51.278;12.588;2022-10-16T14:23:02;100333.72;;;24.23;71.23
14882;BME280;7533;51.278;12.588;2022-10-16T14:28:16;100342.81;;;24.22;71.23
14882;BME280;7533;51.278;12.588;2022-10-16T14:33:23;100332.25;;;24.19;71.81
14882;BME280;7533;51.278;12.588;2022-10-16T14:38:26;100337.91;;;24.16;71.47
14882;BME280;7533;51.278;12.588;2022-10-16T14:43:32;100335.31;;;24.15;71.49
14882;BME280;7533;51.278;12.588;2022-10-16T14:48:40;100345.50;;;24.11;71.76
14882;BME280;7533;51.278;12.588;2022-10-16T14:53:43;100353.75;;;24.10;71.67
14882;BME280;7533;51.278;12.588;2022-10-16T14:58:47;100353.13;;;24.06;71.67
14882;BME280;7533;51.278;12.588;2022-10-16T15:03:51;100357.09;;;24.02;71.75
14882;BME280;7533;51.278;12.588;2022-10-16T15:08:56;100362.00;;;23.97;71.96
14882;BME280;7533;51.278;12.588;2022-10-16T15:13:58;100367.41;;;23.97;72.04
14882;BME280;7533;51.278;12.588;2022-10-16T15:19:03;100371.06;;;24.07;71.67
14882;BME280;7533;51.278;12.588;2022-10-16T15:24:09;100373.03;;;24.05;71.78
14882;BME280;7533;51.278;12.588;2022-10-16T15:29:19;100371.06;;;23.96;71.98
14882;BME280;7533;51.278;12.588;2022-10-16T15:34:23;100377.72;;;23.92;72.11
14882;BME280;7533;51.278;12.588;2022-10-16T15:39:26;100389.72;;;23.88;72.43
14882;BME280;7533;51.278;12.588;2022-10-16T15:44:29;100391.44;;;23.89;72.53
14882;BME280;7533;51.278;12.588;2022-10-16T15:49:33;100391.31;;;23.90;72.54
14882;BME280;7533;51.278;12.588;2022-10-16T15:54:36;100402.03;;;23.92;72.37
14882;BME280;7533;51.278;12.588;2022-10-16T15:59:38;100404.63;;;23.93;72.26
14882;BME280;7533;51.278;12.588;2022-10-16T16:04:42;100413.34;;;23.97;72.30
14882;BME280;7533;51.278;12.588;2022-10-16T16:09:45;100429.19;;;24.01;72.14
14882;BME280;7533;51.278;12.588;2022-10-16T16:14:48;100428.13;;;24.04;71.91
14882;BME280;7533;51.278;12.588;2022-10-16T16:19:52;100423.44;;;24.06;72.16
14882;BME280;7533;51.278;12.588;2022-10-16T16:24:55;100426.91;;;24.08;71.82
14882;BME280;7533;51.278;12.588;2022-10-16T16:29:58;100438.94;;;24.15;71.72
14882;BME280;7533;51.278;12.588;2022-10-16T16:35:02;100438.34;;;24.23;71.53
14882;BME280;7533;51.278;12.588;2022-10-16T16:40:05;100438.25;;;24.24;71.97
14882;BME280;7533;51.278;12.588;2022-10-16T16:45:08;100447.09;;;24.26;71.51
14882;BME280;7533;51.278;12.588;2022-10-16T16:50:13;100453.13;;;24.30;71.42
14882;BME280;7533;51.278;12.588;2022-10-16T16:55:15;100466.66;;;24.30;71.52
14882;BME280;7533;51.278;12.588;2022-10-16T17:00:18;100481.63;;;24.34;71.62
14882;BME280;7533;51.278;12.588;2022-10-16T17:05:22;100492.47;;;24.34;71.50
14882;BME280;7533;51.278;12.588;2022-10-16T17:10:25;100503.09;;;24.37;71.37
14882;BME280;7533;51.278;12.588;2022-10-16T17:15:28;100493.13;;;24.38;71.41
14882;BME280;7533;51.278;12.588;2022-10-16T17:20:35;100494.84;;;24.39;71.47
14882;BME280;7533;51.278;12.588;2022-10-16T17:25:38;100507.38;;;24.40;71.48
14882;BME280;7533;51.278;12.588;2022-10-16T17:30:42;100509.09;;;24.41;71.34
14882;BME280;7533;51.278;12.588;2022-10-16T17:35:46;100503.59;;;24.42;71.26
14882;BME280;7533;51.278;12.588;2022-10-16T17:40:49;100516.88;;;24.45;71.25
14882;BME280;7533;51.278;12.588;2022-10-16T17:45:52;100521.19;;;24.48;71.07
14882;BME280;7533;51.278;12.588;2022-10-16T17:50:57;100524.50;;;24.51;71.14
14882;BME280;7533;51.278;12.588;2022-10-16T17:56:04;100544.19;;;24.53;70.77
14882;BME280;7533;51.278;12.588;2022-10-16T18:01:11;100546.78;;;24.55;71.12
14882;BME280;7533;51.278;12.588;2022-10-16T18:06:16;100532.13;;;24.58;70.96
14882;BME280;7533;51.278;12.588;2022-10-16T18:11:24;100543.22;;;24.54;70.83
14882;BME280;7533;51.278;12.588;2022-10-16T18:16:28;100530.66;;;24.53;70.80
14882;BME280;7533;51.278;12.588;2022-10-16T18:21:33;100541.00;;;24.60;70.61
14882;BME280;7533;51.278;12.588;2022-10-16T18:26:36;100551.22;;;24.67;70.90
14882;BME280;7533;51.278;12.588;2022-10-16T18:31:39;100556.63;;;24.67;71.08
14882;BME280;7533;51.278;12.588;2022-10-16T18:36:45;100555.66;;;24.68;71.01
14882;BME280;7533;51.278;12.588;2022-10-16T18:41:53;100564.53;;;24.70;71.24
14882;BME280;7533;51.278;12.588;2022-10-16T18:47:00;100581.63;;;24.71;71.05
14882;BME280;7533;51.278;12.588;2022-10-16T18:52:05;100568.81;;;24.73;70.84
14882;BME280;7533;51.278;12.588;2022-10-16T18:57:07;100581.50;;;24.72;71.34
14882;BME280;7533;51.278;12.588;2022-10-16T19:02:11;100579.53;;;24.74;71.25
14882;BME280;7533;51.278;12.588;2022-10-16T19:07:15;100567.75;;;24.75;71.11
14882;BME280;7533;51.278;12.588;2022-10-16T19:12:17;100568.34;;;24.79;71.13
14882;BME280;7533;51.278;12.588;2022-10-16T19:17:20;100573.75;;;24.79;70.85
14882;BME280;7533;51.278;12.588;2022-10-16T19:22:24;100570.81;;;24.82;70.76
14882;BME280;7533;51.278;12.588;2022-10-16T19:27:41;100588.91;;;24.82;71.13
14882;BME280;7533;51.278;12.588;2022-10-16T19:32:44;100598.03;;;24.80;71.00
14882;BME280;7533;51.278;12.588;2022-10-16T19:37:51;100602.31;;;24.83;70.80
14882;BME280;7533;51.278;12.588;2022-10-16T19:42:53;100600.34;;;24.85;70.79
14882;BME280;7533;51.278;12.588;2022-10-16T19:47:56;100616.34;;;24.88;70.92
14882;BME280;7533;51.278;12.588;2022-10-16T19:53:00;100607.38;;;24.88;70.91
14882;BME280;7533;51.278;12.588;2022-10-16T19:58:03;100607.38;;;24.88;70.63
14882;BME280;7533;51.278;12.588;2022-10-16T20:03:06;100611.69;;;24.90;70.85
14882;BME280;7533;51.278;12.588;2022-10-16T20:08:10;100624.34;;;24.90;70.77
14882;BME280;7533;51.278;12.588;2022-10-16T20:13:13;100639.63;;;24.91;70.65
14882;BME280;7533;51.278;12.588;2022-10-16T20:18:16;100653.28;;;24.89;70.84
14882;BME280;7533;51.278;12.588;2022-10-16T20:23:20;100655.00;;;24.90;70.83
14882;BME280;7533;51.278;12.588;2022-10-16T20:28:24;100659.44;;;24.91;70.67
14882;BME280;7533;51.278;12.588;2022-10-16T20:33:26;100668.44;;;24.92;70.62
14882;BME280;7533;51.278;12.588;2022-10-16T20:38:30;100666.34;;;24.95;70.80
14882;BME280;7533;51.278;12.588;2022-10-16T20:43:33;100663.63;;;24.95;70.68
14882;BME280;7533;51.278;12.588;2022-10-16T20:48:36;100663.03;;;24.92;70.92
14882;BME280;7533;51.278;12.588;2022-10-16T20:53:43;100659.34;;;24.93;70.73
14882;BME280;7533;51.278;12.588;2022-10-16T20:58:46;100658.34;;;24.94;70.48
14882;BME280;7533;51.278;12.588;2022-10-16T21:03:51;100684.31;;;24.96;70.70
14882;BME280;7533;51.278;12.588;2022-10-16T21:08:55;100675.56;;;24.93;70.67
14882;BME280;7533;51.278;12.588;2022-10-16T21:13:59;100694.63;;;24.91;70.97
14882;BME280;7533;51.278;12.588;2022-10-16T21:19:03;100702.28;;;24.86;71.22
14882;BME280;7533;51.278;12.588;2022-10-16T21:24:07;100687.38;;;24.80;71.23
14882;BME280;7533;51.278;12.588;2022-10-16T21:29:15;100683.16;;;24.76;71.51
14882;BME280;7533;51.278;12.588;2022-10-16T21:34:18;100686.09;;;24.73;71.39
14882;BME280;7533;51.278;12.588;2022-10-16T21:39:22;100682.78;;;24.70;71.53
14882;BME280;7533;51.278;12.588;2022-10-16T21:44:24;100693.81;;;24.67;71.72
14882;BME280;7533;51.278;12.588;2022-10-16T21:49:27;100693.19;;;24.63;71.74
14882;BME280;7533;51.278;12.588;2022-10-16T21:54:31;100681.88;;;24.58;71.98
14882;BME280;7533;51.278;12.588;2022-10-16T21:59:34;100680.97;;;24.58;72.14
14882;BME280;7533;51.278;12.588;2022-10-16T22:04:37;100684.06;;;24.53;72.21
14882;BME280;7533;51.278;12.588;2022-10-16T22:09:41;100691.31;;;24.52;72.29
14882;BME280;7533;51.278;12.588;2022-10-16T22:14:44;100688.84;;;24.49;72.18
14882;BME280;7533;51.278;12.588;2022-10-16T22:19:47;100693.50;;;24.47;72.22
14882;BME280;7533;51.278;12.588;2022-10-16T22:24:52;100700.00;;;24.45;72.42
14882;BME280;7533;51.278;12.588;2022-10-16T22:29:55;100702.84;;;24.43;72.59
14882;BME280;7533;51.278;12.588;2022-10-16T22:34:57;100707.59;;;24.40;72.65
14882;BME280;7533;51.278;12.588;2022-10-16T22:40:02;100703.28;;;24.37;72.57
14882;BME280;7533;51.278;12.588;2022-10-16T22:45:05;100691.91;;;24.32;72.39
14882;BME280;7533;51.278;12.588;2022-10-16T22:50:08;100688.56;;;24.28;72.88
14882;BME280;7533;51.278;12.588;2022-10-16T22:55:12;100678.00;;;24.25;72.94
14882;BME280;7533;51.278;12.588;2022-10-16T23:00:17;100675.50;;;24.22;72.86
14882;BME280;7533;51.278;12.588;2022-10-16T23:05:20;100679.41;;;24.18;73.20
14882;BME280;7533;51.278;12.588;2022-10-16T23:10:24;100680.63;;;24.14;73.27
14882;BME280;7533;51.278;12.588;2022-10-16T23:15:30;100696.09;;;24.12;73.36
14882;BME280;7533;51.278;12.588;2022-10-16T23:20:33;100695.34;;;24.10;73.32
14882;BME280;7533;51.278;12.588;2022-10-16T23:25:44;100699.16;;;24.08;73.09
14882;BME280;7533;51.278;12.588;2022-10-16T23:30:47;100688.56;;;24.05;73.18
14882;BME280;7533;51.278;12.588;2022-10-16T23:35:49;100693.22;;;24.02;73.34
14882;BME280;7533;51.278;12.588;2022-10-16T23:40:53;100686.31;;;23.98;73.48
14882;BME280;7533;51.278;12.588;2022-10-16T23:45:56;100685.66;;;23.95;73.54
14882;BME280;7533;51.278;12.588;2022-10-16T23:50:59;100672.38;;;23.92;73.58
14882;BME280;7533;51.278;12.588;2022-10-16T23:56:04;100678.97;;;23.88;73.87
